Katamy — KATAMY — position and weather

sailwx.info

Track history (hours):
 
Tides and Currents Weather Stations Pressure Air Temp Water Temp Dewpoint Dewpoint Depression Visibility Wind Speed Wind Dir Waves Ship Positions

Katamy

Last reported at 2018-Jun-09 16:27 UTC. Time now 2018-Jun-18 11:33 UTC.
Position N 58°21' W 136°04'.
Warning: this ship's position is 8 days out of date.

Length 14 m.

Type: Pleasure craft. MMSI: 338140807.

Date/timePositionNaut miles runAvg speedWind from/ knotsBaromVisibWave heightAir tempDewpointWater temp
2018-Jun-09 16:27N 58°21' W 136°04'3 5.5
2018-Jun-09 15:53N 58°22' W 135°60'3 6.8
2018-Jun-09 15:29N 58°25' W 135°57'3 3.4
2018-Jun-09 14:29N 58°27' W 135°53'0 0.0
2018-Jun-09 13:59N 58°27' W 135°53'0 0.0
2018-Jun-09 13:29N 58°27' W 135°53'0 0.0
2018-Jun-09 12:59N 58°27' W 135°53'0 0.0
2018-Jun-09 12:29N 58°27' W 135°53'0 0.0
2018-Jun-09 11:59N 58°27' W 135°53'0 0.0
2018-Jun-09 11:29N 58°27' W 135°53'0 0.0
2018-Jun-09 10:56N 58°27' W 135°53'0 0.0
2018-Jun-09 10:26N 58°27' W 135°53'0 0.0
2018-Jun-09 09:59N 58°27' W 135°53'0 0.0
2018-Jun-09 09:29N 58°27' W 135°53'0 0.0
2018-Jun-09 08:59N 58°27' W 135°53'0 0.0
2018-Jun-09 08:26N 58°27' W 135°53'0 0.0
2018-Jun-09 07:59N 58°27' W 135°53'0 0.0
2018-Jun-09 07:29N 58°27' W 135°53'0 0.0
2018-Jun-09 06:59N 58°27' W 135°53'0 0.0
2018-Jun-09 06:29N 58°27' W 135°53'0 0.0
2018-Jun-09 05:59N 58°27' W 135°53'0 0.0
2018-Jun-09 05:29N 58°27' W 135°53'0 0.0
2018-Jun-09 04:59N 58°27' W 135°53'0 0.0
2018-Jun-09 04:29N 58°27' W 135°53'0 0.0
2018-Jun-09 03:59N 58°27' W 135°53'0 0.0
2018-Jun-09 03:26N 58°27' W 135°53'0 0.0
2018-Jun-09 02:59N 58°27' W 135°53'0 0.0
2018-Jun-09 02:29N 58°27' W 135°53'0 0.0
2018-Jun-09 01:56N 58°27' W 135°53'0 0.0
2018-Jun-09 01:29N 58°27' W 135°53'0 0.0
2018-Jun-09 00:56N 58°27' W 135°53'0 0.0
2018-Jun-09 00:26N 58°27' W 135°53'0 0.0
2018-Jun-08 23:59N 58°27' W 135°53'0 0.0
2018-Jun-08 23:29N 58°27' W 135°53'0 0.0
2018-Jun-08 22:56N 58°27' W 135°53'0 0.0
2018-Jun-08 22:29N 58°27' W 135°53'0 0.2
2018-Jun-08 21:59N 58°27' W 135°53'0 0.0
2018-Jun-08 21:29N 58°27' W 135°53'0 0.0
2018-Jun-08 20:50N 58°27' W 135°53'0 0.0
2018-Jun-08 20:29N 58°27' W 135°53'0 0.0
2018-Jun-08 19:59N 58°27' W 135°53'0 0.0
2018-Jun-08 19:26N 58°27' W 135°53'0 0.0
2018-Jun-08 18:59N 58°27' W 135°53'2 4.6
2018-Jun-08 18:30N 58°26' W 135°56'4 8.8
2018-Jun-08 18:00N 58°29' W 136°02'4 8.8
2018-Jun-08 17:29N 58°33' W 136°04'  
2018-Jun-06 01:19N 58°43' W 136°00'3 7.0
2018-Jun-06 00:50N 58°40' W 136°01'3 8.7
2018-Jun-06 00:30N 58°37' W 136°01'4 9.0
2018-Jun-06 00:00N 58°33' W 136°03'510.6
2018-Jun-05 23:30N 58°28' W 136°00'4 7.2
2018-Jun-05 22:59N 58°27' W 135°53'0 0.0
2018-Jun-05 22:29N 58°27' W 135°53'0 0.0
2018-Jun-05 21:59N 58°27' W 135°53'0 0.0
2018-Jun-05 21:29N 58°27' W 135°53'2 5.2
2018-Jun-05 21:00N 58°26' W 135°57'  
Track history (hours):
 
Tides and Currents Weather Stations Pressure Air Temp Water Temp Dewpoint Dewpoint Depression Visibility Wind Speed Wind Dir Waves Ship Positions

Katamy

Last reported at 2018-Jun-09 16:27 UTC. Time now 2018-Jun-18 11:33 UTC.
Position N 58°21' W 136°04'.
Warning: this ship's position is 8 days out of date.

Length 14 m.

Type: Pleasure craft. MMSI: 338140807.

Date/timePositionNaut miles runAvg speedWind from/ knotsBaromVisibWave heightAir tempDewpointWater temp
2018-Jun-09 16:27N 58°21' W 136°04'3 5.5
2018-Jun-09 15:53N 58°22' W 135°60'3 6.8
2018-Jun-09 15:29N 58°25' W 135°57'3 3.4
2018-Jun-09 14:29N 58°27' W 135°53'0 0.0
2018-Jun-09 13:59N 58°27' W 135°53'0 0.0
2018-Jun-09 13:29N 58°27' W 135°53'0 0.0
2018-Jun-09 12:59N 58°27' W 135°53'0 0.0
2018-Jun-09 12:29N 58°27' W 135°53'0 0.0
2018-Jun-09 11:59N 58°27' W 135°53'0 0.0
2018-Jun-09 11:29N 58°27' W 135°53'0 0.0
2018-Jun-09 10:56N 58°27' W 135°53'0 0.0
2018-Jun-09 10:26N 58°27' W 135°53'0 0.0
2018-Jun-09 09:59N 58°27' W 135°53'0 0.0
2018-Jun-09 09:29N 58°27' W 135°53'0 0.0
2018-Jun-09 08:59N 58°27' W 135°53'0 0.0
2018-Jun-09 08:26N 58°27' W 135°53'0 0.0
2018-Jun-09 07:59N 58°27' W 135°53'0 0.0
2018-Jun-09 07:29N 58°27' W 135°53'0 0.0
2018-Jun-09 06:59N 58°27' W 135°53'0 0.0
2018-Jun-09 06:29N 58°27' W 135°53'0 0.0
2018-Jun-09 05:59N 58°27' W 135°53'0 0.0
2018-Jun-09 05:29N 58°27' W 135°53'0 0.0
2018-Jun-09 04:59N 58°27' W 135°53'0 0.0
2018-Jun-09 04:29N 58°27' W 135°53'0 0.0
2018-Jun-09 03:59N 58°27' W 135°53'0 0.0
2018-Jun-09 03:26N 58°27' W 135°53'0 0.0
2018-Jun-09 02:59N 58°27' W 135°53'0 0.0
2018-Jun-09 02:29N 58°27' W 135°53'0 0.0
2018-Jun-09 01:56N 58°27' W 135°53'0 0.0
2018-Jun-09 01:29N 58°27' W 135°53'0 0.0
2018-Jun-09 00:56N 58°27' W 135°53'0 0.0
2018-Jun-09 00:26N 58°27' W 135°53'0 0.0
2018-Jun-08 23:59N 58°27' W 135°53'0 0.0
2018-Jun-08 23:29N 58°27' W 135°53'0 0.0
2018-Jun-08 22:56N 58°27' W 135°53'0 0.0
2018-Jun-08 22:29N 58°27' W 135°53'0 0.2
2018-Jun-08 21:59N 58°27' W 135°53'0 0.0
2018-Jun-08 21:29N 58°27' W 135°53'0 0.0
2018-Jun-08 20:50N 58°27' W 135°53'0 0.0
2018-Jun-08 20:29N 58°27' W 135°53'0 0.0
2018-Jun-08 19:59N 58°27' W 135°53'0 0.0
2018-Jun-08 19:26N 58°27' W 135°53'0 0.0
2018-Jun-08 18:59N 58°27' W 135°53'2 4.6
2018-Jun-08 18:30N 58°26' W 135°56'4 8.8
2018-Jun-08 18:00N 58°29' W 136°02'4 8.8
2018-Jun-08 17:29N 58°33' W 136°04'  
2018-Jun-06 01:19N 58°43' W 136°00'3 7.0
2018-Jun-06 00:50N 58°40' W 136°01'3 8.7
2018-Jun-06 00:30N 58°37' W 136°01'4 9.0
2018-Jun-06 00:00N 58°33' W 136°03'510.6
2018-Jun-05 23:30N 58°28' W 136°00'4 7.2
2018-Jun-05 22:59N 58°27' W 135°53'0 0.0
2018-Jun-05 22:29N 58°27' W 135°53'0 0.0
2018-Jun-05 21:59N 58°27' W 135°53'0 0.0
2018-Jun-05 21:29N 58°27' W 135°53'2 5.2
2018-Jun-05 21:00N 58°26' W 135°57'  

Dump ship's entire track history